sensor_id;sensor_type;location;lat;lon;timestamp;P1;durP1;ratioP1;P2;durP2;ratioP2
78209;SDS011;67485;48.816;9.930;2023-11-19T00:00:42;2.10;;;1.00;;
78209;SDS011;67485;48.816;9.930;2023-11-19T00:03:08;1.50;;;0.80;;
78209;SDS011;67485;48.816;9.930;2023-11-19T00:05:33;1.33;;;0.70;;
78209;SDS011;67485;48.816;9.930;2023-11-19T00:07:59;1.20;;;0.60;;
78209;SDS011;67485;48.816;9.930;2023-11-19T00:10:25;1.70;;;0.60;;
78209;SDS011;67485;48.816;9.930;2023-11-19T00:12:50;1.40;;;0.70;;
78209;SDS011;67485;48.816;9.930;2023-11-19T00:15:16;1.57;;;0.60;;
78209;SDS011;67485;48.816;9.930;2023-11-19T00:17:46;1.00;;;0.60;;
78209;SDS011;67485;48.816;9.930;2023-11-19T00:20:16;1.10;;;0.60;;
78209;SDS011;67485;48.816;9.930;2023-11-19T00:22:44;1.10;;;0.68;;
78209;SDS011;67485;48.816;9.930;2023-11-19T00:25:11;2.38;;;0.80;;
78209;SDS011;67485;48.816;9.930;2023-11-19T00:27:37;1.70;;;0.90;;
78209;SDS011;67485;48.816;9.930;2023-11-19T00:30:05;2.40;;;1.00;;
78209;SDS011;67485;48.816;9.930;2023-11-19T00:32:32;2.28;;;0.98;;
78209;SDS011;67485;48.816;9.930;2023-11-19T00:34:59;2.28;;;0.80;;
78209;SDS011;67485;48.816;9.930;2023-11-19T00:37:25;1.77;;;0.70;;
78209;SDS011;67485;48.816;9.930;2023-11-19T00:39:50;1.77;;;0.95;;
78209;SDS011;67485;48.816;9.930;2023-11-19T00:42:17;1.98;;;0.80;;
78209;SDS011;67485;48.816;9.930;2023-11-19T00:44:43;1.57;;;0.70;;
78209;SDS011;67485;48.816;9.930;2023-11-19T00:47:08;1.98;;;1.00;;
78209;SDS011;67485;48.816;9.930;2023-11-19T00:49:34;2.63;;;0.90;;
78209;SDS011;67485;48.816;9.930;2023-11-19T00:52:00;2.28;;;0.82;;
78209;SDS011;67485;48.816;9.930;2023-11-19T00:54:27;4.35;;;1.00;;
78209;SDS011;67485;48.816;9.930;2023-11-19T00:56:53;2.13;;;0.83;;
78209;SDS011;67485;48.816;9.930;2023-11-19T00:59:18;1.87;;;0.90;;
78209;SDS011;67485;48.816;9.930;2023-11-19T01:01:44;1.48;;;0.80;;
78209;SDS011;67485;48.816;9.930;2023-11-19T01:04:10;2.28;;;0.90;;
78209;SDS011;67485;48.816;9.930;2023-11-19T01:06:36;2.07;;;0.90;;
78209;SDS011;67485;48.816;9.930;2023-11-19T01:09:02;1.65;;;0.90;;
78209;SDS011;67485;48.816;9.930;2023-11-19T01:11:27;2.42;;;1.20;;
78209;SDS011;67485;48.816;9.930;2023-11-19T01:13:53;2.67;;;1.10;;
78209;SDS011;67485;48.816;9.930;2023-11-19T01:16:19;1.77;;;0.88;;
78209;SDS011;67485;48.816;9.930;2023-11-19T01:18:47;1.73;;;0.98;;
78209;SDS011;67485;48.816;9.930;2023-11-19T01:21:13;1.70;;;1.00;;
78209;SDS011;67485;48.816;9.930;2023-11-19T01:23:40;2.00;;;1.20;;
78209;SDS011;67485;48.816;9.930;2023-11-19T01:26:08;2.20;;;1.30;;
78209;SDS011;67485;48.816;9.930;2023-11-19T01:28:38;2.53;;;1.35;;
78209;SDS011;67485;48.816;9.930;2023-11-19T01:31:10;5.38;;;1.10;;
78209;SDS011;67485;48.816;9.930;2023-11-19T01:33:36;2.13;;;1.03;;
78209;SDS011;67485;48.816;9.930;2023-11-19T01:36:02;3.50;;;1.30;;
78209;SDS011;67485;48.816;9.930;2023-11-19T01:38:29;2.38;;;1.40;;
78209;SDS011;67485;48.816;9.930;2023-11-19T01:40:59;2.50;;;1.47;;
78209;SDS011;67485;48.816;9.930;2023-11-19T01:43:35;3.20;;;1.13;;
78209;SDS011;67485;48.816;9.930;2023-11-19T01:46:02;2.42;;;1.00;;
78209;SDS011;67485;48.816;9.930;2023-11-19T01:48:32;2.10;;;1.08;;
78209;SDS011;67485;48.816;9.930;2023-11-19T01:50:59;3.70;;;1.20;;
78209;SDS011;67485;48.816;9.930;2023-11-19T01:53:27;2.40;;;1.00;;
78209;SDS011;67485;48.816;9.930;2023-11-19T01:55:54;1.50;;;0.80;;
78209;SDS011;67485;48.816;9.930;2023-11-19T01:58:22;2.40;;;1.10;;
78209;SDS011;67485;48.816;9.930;2023-11-19T02:00:48;2.17;;;1.20;;
78209;SDS011;67485;48.816;9.930;2023-11-19T02:03:14;1.90;;;1.23;;
78209;SDS011;67485;48.816;9.930;2023-11-19T02:05:41;2.63;;;1.40;;
78209;SDS011;67485;48.816;9.930;2023-11-19T02:08:08;4.10;;;1.30;;
78209;SDS011;67485;48.816;9.930;2023-11-19T02:10:34;2.50;;;1.50;;
78209;SDS011;67485;48.816;9.930;2023-11-19T02:13:00;3.20;;;1.50;;
78209;SDS011;67485;48.816;9.930;2023-11-19T02:15:26;3.05;;;1.58;;
78209;SDS011;67485;48.816;9.930;2023-11-19T02:17:52;3.50;;;1.75;;
78209;SDS011;67485;48.816;9.930;2023-11-19T02:20:17;2.70;;;1.60;;
78209;SDS011;67485;48.816;9.930;2023-11-19T02:22:46;2.63;;;1.77;;
78209;SDS011;67485;48.816;9.930;2023-11-19T02:25:27;3.22;;;1.80;;
78209;SDS011;67485;48.816;9.930;2023-11-19T02:27:56;2.87;;;1.53;;
78209;SDS011;67485;48.816;9.930;2023-11-19T02:30:25;1.80;;;1.30;;
78209;SDS011;67485;48.816;9.930;2023-11-19T02:32:58;2.38;;;1.42;;
78209;SDS011;67485;48.816;9.930;2023-11-19T02:35:27;2.35;;;1.50;;
78209;SDS011;67485;48.816;9.930;2023-11-19T02:37:56;3.35;;;1.40;;
78209;SDS011;67485;48.816;9.930;2023-11-19T02:40:22;3.03;;;1.27;;
78209;SDS011;67485;48.816;9.930;2023-11-19T02:42:49;2.22;;;1.17;;
78209;SDS011;67485;48.816;9.930;2023-11-19T02:45:15;2.15;;;1.10;;
78209;SDS011;67485;48.816;9.930;2023-11-19T02:47:41;2.08;;;1.08;;
78209;SDS011;67485;48.816;9.930;2023-11-19T02:50:09;1.40;;;0.80;;
78209;SDS011;67485;48.816;9.930;2023-11-19T02:52:46;1.90;;;1.00;;
78209;SDS011;67485;48.816;9.930;2023-11-19T02:55:12;1.73;;;0.68;;
78209;SDS011;67485;48.816;9.930;2023-11-19T02:57:38;1.27;;;0.80;;
78209;SDS011;67485;48.816;9.930;2023-11-19T03:00:15;1.10;;;0.63;;
78209;SDS011;67485;48.816;9.930;2023-11-19T03:02:42;1.20;;;0.60;;
78209;SDS011;67485;48.816;9.930;2023-11-19T03:05:16;1.70;;;0.80;;
78209;SDS011;67485;48.816;9.930;2023-11-19T03:07:42;1.98;;;0.70;;
78209;SDS011;67485;48.816;9.930;2023-11-19T03:10:09;3.03;;;0.90;;
78209;SDS011;67485;48.816;9.930;2023-11-19T03:12:39;2.00;;;0.70;;
78209;SDS011;67485;48.816;9.930;2023-11-19T03:15:09;1.40;;;0.70;;
78209;SDS011;67485;48.816;9.930;2023-11-19T03:17:36;1.70;;;0.80;;
78209;SDS011;67485;48.816;9.930;2023-11-19T03:20:06;2.10;;;1.00;;
78209;SDS011;67485;48.816;9.930;2023-11-19T03:22:43;2.30;;;1.10;;
78209;SDS011;67485;48.816;9.930;2023-11-19T03:25:09;1.70;;;0.90;;
78209;SDS011;67485;48.816;9.930;2023-11-19T03:27:36;1.90;;;0.80;;
78209;SDS011;67485;48.816;9.930;2023-11-19T03:30:05;1.80;;;0.80;;
78209;SDS011;67485;48.816;9.930;2023-11-19T03:32:32;1.20;;;0.70;;
78209;SDS011;67485;48.816;9.930;2023-11-19T03:34:58;2.38;;;0.90;;
78209;SDS011;67485;48.816;9.930;2023-11-19T03:37:25;1.25;;;0.80;;
78209;SDS011;67485;48.816;9.930;2023-11-19T03:39:51;1.55;;;0.82;;
78209;SDS011;67485;48.816;9.930;2023-11-19T03:42:20;2.20;;;0.87;;
78209;SDS011;67485;48.816;9.930;2023-11-19T03:44:46;1.70;;;0.80;;
78209;SDS011;67485;48.816;9.930;2023-11-19T03:47:15;1.65;;;0.88;;
78209;SDS011;67485;48.816;9.930;2023-11-19T03:49:41;1.90;;;0.90;;
78209;SDS011;67485;48.816;9.930;2023-11-19T03:52:07;1.70;;;0.90;;
78209;SDS011;67485;48.816;9.930;2023-11-19T03:54:34;1.20;;;0.70;;
78209;SDS011;67485;48.816;9.930;2023-11-19T03:57:01;1.10;;;0.70;;
78209;SDS011;67485;48.816;9.930;2023-11-19T03:59:28;2.63;;;0.75;;
78209;SDS011;67485;48.816;9.930;2023-11-19T04:01:54;1.58;;;0.75;;
78209;SDS011;67485;48.816;9.930;2023-11-19T04:04:21;1.20;;;0.70;;
78209;SDS011;67485;48.816;9.930;2023-11-19T04:06:47;1.63;;;0.68;;
78209;SDS011;67485;48.816;9.930;2023-11-19T04:09:13;0.98;;;0.50;;
78209;SDS011;67485;48.816;9.930;2023-11-19T04:11:39;1.40;;;0.67;;
78209;SDS011;67485;48.816;9.930;2023-11-19T04:14:05;1.30;;;0.70;;
78209;SDS011;67485;48.816;9.930;2023-11-19T04:16:31;1.63;;;0.63;;
78209;SDS011;67485;48.816;9.930;2023-11-19T04:18:57;3.47;;;0.60;;
78209;SDS011;67485;48.816;9.930;2023-11-19T04:21:24;1.10;;;0.60;;
78209;SDS011;67485;48.816;9.930;2023-11-19T04:23:51;1.33;;;0.60;;
78209;SDS011;67485;48.816;9.930;2023-11-19T04:26:16;0.90;;;0.50;;
78209;SDS011;67485;48.816;9.930;2023-11-19T04:28:42;0.90;;;0.50;;
78209;SDS011;67485;48.816;9.930;2023-11-19T04:31:08;1.47;;;0.50;;
78209;SDS011;67485;48.816;9.930;2023-11-19T04:33:34;1.03;;;0.50;;
78209;SDS011;67485;48.816;9.930;2023-11-19T04:36:00;0.90;;;0.50;;
78209;SDS011;67485;48.816;9.930;2023-11-19T04:38:25;2.07;;;0.60;;
78209;SDS011;67485;48.816;9.930;2023-11-19T04:40:52;0.93;;;0.50;;
78209;SDS011;67485;48.816;9.930;2023-11-19T04:43:17;1.10;;;0.60;;
78209;SDS011;67485;48.816;9.930;2023-11-19T04:45:46;1.00;;;0.60;;
78209;SDS011;67485;48.816;9.930;2023-11-19T04:48:11;1.55;;;0.50;;
78209;SDS011;67485;48.816;9.930;2023-11-19T04:50:37;1.00;;;0.70;;
78209;SDS011;67485;48.816;9.930;2023-11-19T04:53:03;1.70;;;0.60;;
78209;SDS011;67485;48.816;9.930;2023-11-19T04:55:29;1.30;;;0.57;;
78209;SDS011;67485;48.816;9.930;2023-11-19T04:57:55;1.27;;;0.60;;
78209;SDS011;67485;48.816;9.930;2023-11-19T05:00:20;1.15;;;0.68;;
78209;SDS011;67485;48.816;9.930;2023-11-19T05:02:46;1.17;;;0.60;;
78209;SDS011;67485;48.816;9.930;2023-11-19T05:05:12;1.35;;;0.60;;
78209;SDS011;67485;48.816;9.930;2023-11-19T05:07:38;1.53;;;0.67;;
78209;SDS011;67485;48.816;9.930;2023-11-19T05:10:04;1.80;;;0.50;;
78209;SDS011;67485;48.816;9.930;2023-11-19T05:12:31;0.90;;;0.50;;
78209;SDS011;67485;48.816;9.930;2023-11-19T05:14:56;0.90;;;0.50;;
78209;SDS011;67485;48.816;9.930;2023-11-19T05:17:23;1.58;;;0.60;;
78209;SDS011;67485;48.816;9.930;2023-11-19T05:19:48;2.00;;;0.50;;
78209;SDS011;67485;48.816;9.930;2023-11-19T05:22:14;1.65;;;0.60;;
78209;SDS011;67485;48.816;9.930;2023-11-19T05:24:40;1.33;;;0.60;;
78209;SDS011;67485;48.816;9.930;2023-11-19T05:27:06;1.42;;;0.70;;
78209;SDS011;67485;48.816;9.930;2023-11-19T05:29:33;1.20;;;0.60;;
78209;SDS011;67485;48.816;9.930;2023-11-19T05:31:59;1.10;;;0.60;;
78209;SDS011;67485;48.816;9.930;2023-11-19T05:34:25;1.43;;;0.60;;
78209;SDS011;67485;48.816;9.930;2023-11-19T05:36:51;1.17;;;0.60;;
78209;SDS011;67485;48.816;9.930;2023-11-19T05:39:17;1.67;;;0.60;;
78209;SDS011;67485;48.816;9.930;2023-11-19T05:41:45;0.80;;;0.50;;
78209;SDS011;67485;48.816;9.930;2023-11-19T05:44:11;1.33;;;0.77;;
78209;SDS011;67485;48.816;9.930;2023-11-19T05:46:36;0.90;;;0.50;;
78209;SDS011;67485;48.816;9.930;2023-11-19T05:49:05;1.00;;;0.50;;
78209;SDS011;67485;48.816;9.930;2023-11-19T05:51:31;1.08;;;0.60;;
78209;SDS011;67485;48.816;9.930;2023-11-19T05:53:57;1.17;;;0.53;;
78209;SDS011;67485;48.816;9.930;2023-11-19T05:56:22;0.88;;;0.50;;
78209;SDS011;67485;48.816;9.930;2023-11-19T05:58:48;1.23;;;0.50;;
78209;SDS011;67485;48.816;9.930;2023-11-19T06:01:14;3.42;;;0.55;;
78209;SDS011;67485;48.816;9.930;2023-11-19T06:03:40;1.20;;;0.70;;
78209;SDS011;67485;48.816;9.930;2023-11-19T06:06:06;1.15;;;0.60;;
78209;SDS011;67485;48.816;9.930;2023-11-19T06:08:31;1.33;;;0.60;;
78209;SDS011;67485;48.816;9.930;2023-11-19T06:10:57;0.90;;;0.50;;
78209;SDS011;67485;48.816;9.930;2023-11-19T06:13:23;1.08;;;0.40;;
78209;SDS011;67485;48.816;9.930;2023-11-19T06:15:50;0.80;;;0.50;;
78209;SDS011;67485;48.816;9.930;2023-11-19T06:18:16;0.90;;;0.47;;
78209;SDS011;67485;48.816;9.930;2023-11-19T06:20:45;0.90;;;0.50;;
78209;SDS011;67485;48.816;9.930;2023-11-19T06:23:10;1.65;;;0.60;;
78209;SDS011;67485;48.816;9.930;2023-11-19T06:25:36;1.13;;;0.50;;
78209;SDS011;67485;48.816;9.930;2023-11-19T06:28:02;1.80;;;0.50;;
78209;SDS011;67485;48.816;9.930;2023-11-19T06:30:28;2.80;;;0.50;;
78209;SDS011;67485;48.816;9.930;2023-11-19T06:32:55;0.80;;;0.50;;
78209;SDS011;67485;48.816;9.930;2023-11-19T06:35:20;1.23;;;0.60;;
78209;SDS011;67485;48.816;9.930;2023-11-19T06:37:46;0.87;;;0.50;;
78209;SDS011;67485;48.816;9.930;2023-11-19T06:40:12;2.33;;;1.00;;
78209;SDS011;67485;48.816;9.930;2023-11-19T06:42:37;2.15;;;1.30;;
78209;SDS011;67485;48.816;9.930;2023-11-19T06:45:04;3.33;;;1.70;;
78209;SDS011;67485;48.816;9.930;2023-11-19T06:47:31;2.72;;;1.42;;
78209;SDS011;67485;48.816;9.930;2023-11-19T06:49:58;3.40;;;1.57;;
78209;SDS011;67485;48.816;9.930;2023-11-19T06:52:23;3.42;;;1.38;;
78209;SDS011;67485;48.816;9.930;2023-11-19T06:54:50;1.30;;;0.60;;
78209;SDS011;67485;48.816;9.930;2023-11-19T06:57:15;2.73;;;0.60;;
78209;SDS011;67485;48.816;9.930;2023-11-19T06:59:42;0.65;;;0.40;;
78209;SDS011;67485;48.816;9.930;2023-11-19T07:02:07;0.80;;;0.40;;
78209;SDS011;67485;48.816;9.930;2023-11-19T07:04:34;0.87;;;0.40;;
78209;SDS011;67485;48.816;9.930;2023-11-19T07:06:59;0.85;;;0.40;;
78209;SDS011;67485;48.816;9.930;2023-11-19T07:09:25;1.60;;;0.40;;
78209;SDS011;67485;48.816;9.930;2023-11-19T07:11:52;0.88;;;0.45;;
78209;SDS011;67485;48.816;9.930;2023-11-19T07:14:17;0.90;;;0.50;;
78209;SDS011;67485;48.816;9.930;2023-11-19T07:16:43;1.27;;;0.50;;
78209;SDS011;67485;48.816;9.930;2023-11-19T07:19:09;0.70;;;0.40;;
78209;SDS011;67485;48.816;9.930;2023-11-19T07:21:35;0.90;;;0.50;;
78209;SDS011;67485;48.816;9.930;2023-11-19T07:24:04;1.90;;;0.50;;
78209;SDS011;67485;48.816;9.930;2023-11-19T07:26:31;1.97;;;0.60;;
78209;SDS011;67485;48.816;9.930;2023-11-19T07:28:57;2.13;;;0.80;;
78209;SDS011;67485;48.816;9.930;2023-11-19T07:31:23;1.20;;;0.60;;
78209;SDS011;67485;48.816;9.930;2023-11-19T07:33:49;1.08;;;0.50;;
78209;SDS011;67485;48.816;9.930;2023-11-19T07:36:15;0.70;;;0.40;;
78209;SDS011;67485;48.816;9.930;2023-11-19T07:38:41;0.63;;;0.40;;
78209;SDS011;67485;48.816;9.930;2023-11-19T07:41:07;2.45;;;0.40;;
78209;SDS011;67485;48.816;9.930;2023-11-19T07:43:42;0.70;;;0.40;;
78209;SDS011;67485;48.816;9.930;2023-11-19T07:46:13;1.43;;;0.60;;
78209;SDS011;67485;48.816;9.930;2023-11-19T07:48:39;2.13;;;0.50;;
78209;SDS011;67485;48.816;9.930;2023-11-19T07:51:05;2.25;;;0.57;;
78209;SDS011;67485;48.816;9.930;2023-11-19T07:53:31;1.73;;;0.95;;
78209;SDS011;67485;48.816;9.930;2023-11-19T07:55:58;1.55;;;0.52;;
78209;SDS011;67485;48.816;9.930;2023-11-19T07:58:25;2.67;;;0.50;;
78209;SDS011;67485;48.816;9.930;2023-11-19T08:00:51;0.95;;;0.50;;
78209;SDS011;67485;48.816;9.930;2023-11-19T08:03:17;1.20;;;0.60;;
78209;SDS011;67485;48.816;9.930;2023-11-19T08:05:44;1.42;;;0.50;;
78209;SDS011;67485;48.816;9.930;2023-11-19T08:08:11;1.17;;;0.50;;
78209;SDS011;67485;48.816;9.930;2023-11-19T08:10:37;1.33;;;0.50;;
78209;SDS011;67485;48.816;9.930;2023-11-19T08:13:03;1.67;;;0.60;;
78209;SDS011;67485;48.816;9.930;2023-11-19T08:15:29;2.30;;;0.57;;
78209;SDS011;67485;48.816;9.930;2023-11-19T08:17:54;1.10;;;0.60;;
78209;SDS011;67485;48.816;9.930;2023-11-19T08:20:20;1.30;;;0.60;;
78209;SDS011;67485;48.816;9.930;2023-11-19T08:22:46;0.90;;;0.50;;
78209;SDS011;67485;48.816;9.930;2023-11-19T08:25:11;1.80;;;0.50;;
78209;SDS011;67485;48.816;9.930;2023-11-19T08:27:37;0.70;;;0.40;;
78209;SDS011;67485;48.816;9.930;2023-11-19T08:30:03;0.80;;;0.47;;
78209;SDS011;67485;48.816;9.930;2023-11-19T08:32:31;1.38;;;0.47;;
78209;SDS011;67485;48.816;9.930;2023-11-19T08:34:57;1.40;;;0.50;;
78209;SDS011;67485;48.816;9.930;2023-11-19T08:37:22;1.38;;;0.60;;
78209;SDS011;67485;48.816;9.930;2023-11-19T08:39:48;0.90;;;0.43;;
78209;SDS011;67485;48.816;9.930;2023-11-19T08:42:14;1.35;;;0.50;;
78209;SDS011;67485;48.816;9.930;2023-11-19T08:44:41;1.00;;;0.40;;
78209;SDS011;67485;48.816;9.930;2023-11-19T08:47:12;0.90;;;0.50;;
78209;SDS011;67485;48.816;9.930;2023-11-19T08:49:38;1.23;;;0.60;;
78209;SDS011;67485;48.816;9.930;2023-11-19T08:52:04;1.05;;;0.55;;
78209;SDS011;67485;48.816;9.930;2023-11-19T08:54:32;1.13;;;0.50;;
78209;SDS011;67485;48.816;9.930;2023-11-19T08:56:58;1.20;;;0.63;;
78209;SDS011;67485;48.816;9.930;2023-11-19T08:59:25;1.27;;;0.40;;
78209;SDS011;67485;48.816;9.930;2023-11-19T09:01:50;1.10;;;0.60;;
78209;SDS011;67485;48.816;9.930;2023-11-19T09:04:16;2.35;;;0.50;;
78209;SDS011;67485;48.816;9.930;2023-11-19T09:06:42;1.97;;;0.70;;
78209;SDS011;67485;48.816;9.930;2023-11-19T09:09:08;2.13;;;0.50;;
78209;SDS011;67485;48.816;9.930;2023-11-19T09:11:34;1.05;;;0.50;;
78209;SDS011;67485;48.816;9.930;2023-11-19T09:14:00;2.70;;;0.50;;
78209;SDS011;67485;48.816;9.930;2023-11-19T09:16:26;0.80;;;0.40;;
78209;SDS011;67485;48.816;9.930;2023-11-19T09:18:51;0.90;;;0.53;;
78209;SDS011;67485;48.816;9.930;2023-11-19T09:21:17;1.00;;;0.60;;
78209;SDS011;67485;48.816;9.930;2023-11-19T09:23:43;3.17;;;0.70;;
78209;SDS011;67485;48.816;9.930;2023-11-19T09:26:09;1.00;;;0.50;;
78209;SDS011;67485;48.816;9.930;2023-11-19T09:28:37;0.80;;;0.50;;
78209;SDS011;67485;48.816;9.930;2023-11-19T09:31:03;0.82;;;0.50;;
78209;SDS011;67485;48.816;9.930;2023-11-19T09:33:37;1.35;;;0.60;;
78209;SDS011;67485;48.816;9.930;2023-11-19T09:36:03;0.80;;;0.50;;
78209;SDS011;67485;48.816;9.930;2023-11-19T09:38:29;2.13;;;0.60;;
78209;SDS011;67485;48.816;9.930;2023-11-19T09:40:55;1.20;;;0.70;;
78209;SDS011;67485;48.816;9.930;2023-11-19T09:43:20;2.00;;;0.90;;
78209;SDS011;67485;48.816;9.930;2023-11-19T09:45:49;1.43;;;0.60;;
78209;SDS011;67485;48.816;9.930;2023-11-19T09:48:18;1.35;;;0.60;;
78209;SDS011;67485;48.816;9.930;2023-11-19T09:50:48;0.70;;;0.43;;
78209;SDS011;67485;48.816;9.930;2023-11-19T09:53:14;1.50;;;0.50;;
78209;SDS011;67485;48.816;9.930;2023-11-19T09:55:40;0.77;;;0.50;;
78209;SDS011;67485;48.816;9.930;2023-11-19T09:58:07;1.52;;;0.60;;
78209;SDS011;67485;48.816;9.930;2023-11-19T10:00:33;1.30;;;0.57;;
78209;SDS011;67485;48.816;9.930;2023-11-19T10:03:00;1.80;;;1.08;;
78209;SDS011;67485;48.816;9.930;2023-11-19T10:05:26;1.90;;;1.10;;
78209;SDS011;67485;48.816;9.930;2023-11-19T10:07:52;1.13;;;0.60;;
78209;SDS011;67485;48.816;9.930;2023-11-19T10:10:18;1.90;;;0.60;;
78209;SDS011;67485;48.816;9.930;2023-11-19T10:12:47;1.10;;;0.60;;
78209;SDS011;67485;48.816;9.930;2023-11-19T10:15:21;0.90;;;0.50;;
78209;SDS011;67485;48.816;9.930;2023-11-19T10:17:57;1.67;;;0.60;;
78209;SDS011;67485;48.816;9.930;2023-11-19T10:20:23;11.18;;;2.65;;
78209;SDS011;67485;48.816;9.930;2023-11-19T10:22:52;1.58;;;0.70;;
78209;SDS011;67485;48.816;9.930;2023-11-19T10:25:22;1.70;;;0.50;;
78209;SDS011;67485;48.816;9.930;2023-11-19T10:27:49;1.20;;;0.50;;
78209;SDS011;67485;48.816;9.930;2023-11-19T10:30:25;1.45;;;0.60;;
78209;SDS011;67485;48.816;9.930;2023-11-19T10:33:07;1.33;;;0.50;;
78209;SDS011;67485;48.816;9.930;2023-11-19T10:35:52;1.75;;;0.50;;
78209;SDS011;67485;48.816;9.930;2023-11-19T10:38:19;1.27;;;0.50;;
78209;SDS011;67485;48.816;9.930;2023-11-19T10:40:45;1.50;;;0.60;;
78209;SDS011;67485;48.816;9.930;2023-11-19T10:43:11;2.05;;;0.70;;
78209;SDS011;67485;48.816;9.930;2023-11-19T10:45:37;0.93;;;0.50;;
78209;SDS011;67485;48.816;9.930;2023-11-19T10:48:04;1.02;;;0.50;;
78209;SDS011;67485;48.816;9.930;2023-11-19T10:50:33;2.47;;;0.80;;
78209;SDS011;67485;48.816;9.930;2023-11-19T10:53:00;2.45;;;0.85;;
78209;SDS011;67485;48.816;9.930;2023-11-19T10:55:35;6.55;;;0.80;;
78209;SDS011;67485;48.816;9.930;2023-11-19T10:58:12;1.80;;;0.57;;
78209;SDS011;67485;48.816;9.930;2023-11-19T11:00:57;2.25;;;0.60;;
78209;SDS011;67485;48.816;9.930;2023-11-19T11:03:53;1.35;;;0.60;;
78209;SDS011;67485;48.816;9.930;2023-11-19T11:06:21;1.73;;;0.70;;
78209;SDS011;67485;48.816;9.930;2023-11-19T11:08:48;2.63;;;1.00;;
78209;SDS011;67485;48.816;9.930;2023-11-19T11:11:15;1.87;;;0.70;;
78209;SDS011;67485;48.816;9.930;2023-11-19T11:13:49;2.10;;;0.70;;
78209;SDS011;67485;48.816;9.930;2023-11-19T11:16:18;1.92;;;0.60;;
78209;SDS011;67485;48.816;9.930;2023-11-19T11:18:46;1.77;;;0.67;;
78209;SDS011;67485;48.816;9.930;2023-11-19T11:21:20;1.17;;;0.60;;
78209;SDS011;67485;48.816;9.930;2023-11-19T11:24:09;1.42;;;0.70;;
78209;SDS011;67485;48.816;9.930;2023-11-19T11:32:21;1.20;;;0.60;;
78209;SDS011;67485;48.816;9.930;2023-11-19T11:35:11;1.40;;;0.50;;
78209;SDS011;67485;48.816;9.930;2023-11-19T11:37:49;1.17;;;0.70;;
78209;SDS011;67485;48.816;9.930;2023-11-19T11:40:18;1.17;;;0.63;;
78209;SDS011;67485;48.816;9.930;2023-11-19T11:42:44;1.23;;;0.50;;
78209;SDS011;67485;48.816;9.930;2023-11-19T11:45:14;1.00;;;0.60;;
78209;SDS011;67485;48.816;9.930;2023-11-19T11:53:13;1.53;;;0.73;;
78209;SDS011;67485;48.816;9.930;2023-11-19T11:55:24;1.20;;;0.70;;
78209;SDS011;67485;48.816;9.930;2023-11-19T11:57:53;1.25;;;0.70;;
78209;SDS011;67485;48.816;9.930;2023-11-19T12:00:26;1.75;;;0.60;;
78209;SDS011;67485;48.816;9.930;2023-11-19T12:02:52;3.35;;;0.60;;
78209;SDS011;67485;48.816;9.930;2023-11-19T12:05:19;1.27;;;0.67;;
78209;SDS011;67485;48.816;9.930;2023-11-19T12:08:02;1.15;;;0.60;;
78209;SDS011;67485;48.816;9.930;2023-11-19T12:10:31;1.27;;;0.60;;
78209;SDS011;67485;48.816;9.930;2023-11-19T12:13:02;0.95;;;0.50;;
78209;SDS011;67485;48.816;9.930;2023-11-19T12:15:32;1.85;;;0.80;;
78209;SDS011;67485;48.816;9.930;2023-11-19T12:17:58;1.10;;;0.60;;
78209;SDS011;67485;48.816;9.930;2023-11-19T12:20:25;3.30;;;0.52;;
78209;SDS011;67485;48.816;9.930;2023-11-19T12:22:51;1.13;;;0.60;;
78209;SDS011;67485;48.816;9.930;2023-11-19T12:25:19;1.25;;;0.60;;
78209;SDS011;67485;48.816;9.930;2023-11-19T12:27:51;1.73;;;0.70;;
78209;SDS011;67485;48.816;9.930;2023-11-19T12:30:22;2.17;;;0.70;;
78209;SDS011;67485;48.816;9.930;2023-11-19T12:32:48;1.60;;;0.70;;
78209;SDS011;67485;48.816;9.930;2023-11-19T12:35:14;2.15;;;0.55;;
78209;SDS011;67485;48.816;9.930;2023-11-19T12:37:43;1.10;;;0.60;;
78209;SDS011;67485;48.816;9.930;2023-11-19T12:40:11;0.90;;;0.50;;
78209;SDS011;67485;48.816;9.930;2023-11-19T12:42:46;1.15;;;0.50;;
78209;SDS011;67485;48.816;9.930;2023-11-19T12:45:16;1.80;;;0.70;;
78209;SDS011;67485;48.816;9.930;2023-11-19T12:47:42;1.20;;;0.50;;
78209;SDS011;67485;48.816;9.930;2023-11-19T12:50:09;1.42;;;0.50;;
78209;SDS011;67485;48.816;9.930;2023-11-19T12:52:36;2.15;;;0.60;;
78209;SDS011;67485;48.816;9.930;2023-11-19T12:55:03;1.25;;;0.50;;
78209;SDS011;67485;48.816;9.930;2023-11-19T12:57:40;1.45;;;0.60;;
78209;SDS011;67485;48.816;9.930;2023-11-19T13:00:08;3.20;;;0.90;;
78209;SDS011;67485;48.816;9.930;2023-11-19T13:05:26;1.23;;;0.70;;
78209;SDS011;67485;48.816;9.930;2023-11-19T13:08:04;3.08;;;0.60;;
78209;SDS011;67485;48.816;9.930;2023-11-19T13:10:31;1.95;;;0.57;;
78209;SDS011;67485;48.816;9.930;2023-11-19T13:13:17;1.60;;;0.63;;
78209;SDS011;67485;48.816;9.930;2023-11-19T13:15:43;2.35;;;0.55;;
78209;SDS011;67485;48.816;9.930;2023-11-19T13:18:10;1.30;;;0.50;;
78209;SDS011;67485;48.816;9.930;2023-11-19T13:20:36;1.17;;;0.50;;
78209;SDS011;67485;48.816;9.930;2023-11-19T13:23:02;1.20;;;0.50;;
78209;SDS011;67485;48.816;9.930;2023-11-19T13:25:29;1.80;;;0.60;;
78209;SDS011;67485;48.816;9.930;2023-11-19T13:27:56;1.25;;;0.60;;
78209;SDS011;67485;48.816;9.930;2023-11-19T13:30:22;2.30;;;0.50;;
78209;SDS011;67485;48.816;9.930;2023-11-19T13:32:49;2.07;;;0.87;;
78209;SDS011;67485;48.816;9.930;2023-11-19T13:35:19;1.33;;;0.60;;
78209;SDS011;67485;48.816;9.930;2023-11-19T13:37:51;1.00;;;0.60;;
78209;SDS011;67485;48.816;9.930;2023-11-19T13:41:06;1.37;;;0.60;;
78209;SDS011;67485;48.816;9.930;2023-11-19T13:43:34;1.42;;;0.55;;
78209;SDS011;67485;48.816;9.930;2023-11-19T13:46:00;1.35;;;0.50;;
78209;SDS011;67485;48.816;9.930;2023-11-19T13:48:26;1.30;;;0.50;;
78209;SDS011;67485;48.816;9.930;2023-11-19T13:50:55;2.65;;;0.50;;
78209;SDS011;67485;48.816;9.930;2023-11-19T13:53:21;1.25;;;0.50;;
78209;SDS011;67485;48.816;9.930;2023-11-19T13:55:49;2.25;;;0.50;;
78209;SDS011;67485;48.816;9.930;2023-11-19T13:58:15;5.50;;;0.57;;
78209;SDS011;67485;48.816;9.930;2023-11-19T14:00:41;0.97;;;0.50;;
78209;SDS011;67485;48.816;9.930;2023-11-19T14:03:07;2.20;;;0.50;;
78209;SDS011;67485;48.816;9.930;2023-11-19T14:05:34;1.17;;;0.57;;
78209;SDS011;67485;48.816;9.930;2023-11-19T14:08:00;1.10;;;0.40;;
78209;SDS011;67485;48.816;9.930;2023-11-19T14:10:26;1.80;;;0.80;;
78209;SDS011;67485;48.816;9.930;2023-11-19T14:12:52;1.23;;;0.60;;
78209;SDS011;67485;48.816;9.930;2023-11-19T14:15:18;1.97;;;0.67;;
78209;SDS011;67485;48.816;9.930;2023-11-19T14:17:43;1.92;;;0.60;;
78209;SDS011;67485;48.816;9.930;2023-11-19T14:20:09;2.83;;;0.50;;
78209;SDS011;67485;48.816;9.930;2023-11-19T14:22:39;1.10;;;0.50;;
78209;SDS011;67485;48.816;9.930;2023-11-19T14:25:05;2.72;;;0.60;;
78209;SDS011;67485;48.816;9.930;2023-11-19T14:27:35;2.30;;;0.60;;
78209;SDS011;67485;48.816;9.930;2023-11-19T14:30:03;1.27;;;0.60;;
78209;SDS011;67485;48.816;9.930;2023-11-19T14:32:33;2.60;;;0.60;;
78209;SDS011;67485;48.816;9.930;2023-11-19T14:35:00;1.90;;;0.80;;
78209;SDS011;67485;48.816;9.930;2023-11-19T14:37:26;2.13;;;0.80;;
78209;SDS011;67485;48.816;9.930;2023-11-19T14:39:52;1.13;;;0.50;;
78209;SDS011;67485;48.816;9.930;2023-11-19T14:42:17;1.17;;;0.60;;
78209;SDS011;67485;48.816;9.930;2023-11-19T14:44:43;1.20;;;0.60;;
78209;SDS011;67485;48.816;9.930;2023-11-19T14:47:09;2.43;;;0.80;;
78209;SDS011;67485;48.816;9.930;2023-11-19T14:49:35;1.30;;;0.50;;
78209;SDS011;67485;48.816;9.930;2023-11-19T14:52:02;1.90;;;0.80;;
78209;SDS011;67485;48.816;9.930;2023-11-19T14:54:29;1.70;;;0.80;;
78209;SDS011;67485;48.816;9.930;2023-11-19T14:56:54;1.70;;;0.70;;
78209;SDS011;67485;48.816;9.930;2023-11-19T14:59:20;2.33;;;0.70;;
78209;SDS011;67485;48.816;9.930;2023-11-19T15:01:46;2.80;;;0.70;;
78209;SDS011;67485;48.816;9.930;2023-11-19T15:04:11;0.87;;;0.50;;